Abidjan, Ivory Coast

10:17 AM GMT on October 25, 2014 (GMT +0000)
Felix Houphouet-Boigny | Change Station
CLOSE
Current Station
Airport
Location: Abidjan,
Elevation: 26 ft
Nearby Weather Stations

Elev 26 ft 5.26 °N, 3.93 °W | Updated 17 minutes ago

Thunderstorm
Thunderstorm
81 °F
Feels Like 86 °F
N
8
Wind Variable Wind from WSW

Today
High -- | Low -- °F
--% Chance of Precip.
Yesterday
High -- | Low -- °F
Precip. -- in
6:00 AM 5:58 PM
New Moon, 2% visible
Pressure 29.89 in
Visibility 5.0 miles
Clouds Scattered Clouds 1100 ft
Few 2000 ft
Mostly Cloudy 4000 ft
Heat Index 86 °F
Dew Point 75 °F
Humidity 84%
Rainfall 0.00 in
Snow Depth Not available.
UV 6 out of 12
Pollen Not available.
Air Quality Not available.
Flu Activity Not available.
METAR DIAP 251000Z 25007KT 200V270 8000 TS SCT011 FEW020CB BKN040 27/24 Q1012 TEMPO 3000 TSRA BKN011 FEW020CB OVC040

More Conditions Fewer Conditions

Pressure 29.89 in
Visibility 5.0 miles
Clouds Scattered Clouds 1100 ft
Few 2000 ft
Mostly Cloudy 4000 ft
Heat Index 86 °F
Dew Point 75 °F
Humidity 84%
Rainfall 0.00 in
Snow Depth Not available.
UV 6 out of 12
Pollen Not available.
Air Quality Not available.
Flu Activity Not available.
METAR DIAP 251000Z 25007KT 200V270 8000 TS SCT011 FEW020CB BKN040 27/24 Q1012 TEMPO 3000 TSRA BKN011 FEW020CB OVC040

More Conditions Fewer Conditions

10-Day Weather Forecast

Almanac

Astronomy

Oct. 25, 2014 Rise Set
Actual Time 6:00 AM GMT 5:58 PM GMT
Civil Twilight 5:39 AM GMT 6:19 PM GMT
Nautical Twilight 5:15 AM GMT 6:44 PM GMT
Astronomical Twilight 4:50 AM GMT 7:08 PM GMT
Moon 7:13 AM GMT 7:26 PM GMT
Length of Visible Light 12h 40m
Length of Day
11h 57m
Tomorrow will be 0m 14s shorter.
New Moon, 2% of the Moon is Illuminated
Today
New Moon
Oct 30
First Quarter
Nov 6
Full
Nov 14
Last Quarter
Nov 22
New

Yesterday's Extremes

Country Highs Country Lows

Community

WunderPhotos

Upload Photos

1,764,796 photos uploaded!

Nearby

Snow Depth

Not available.

Earthquake Activity

City Distance Mag. Time & Date
No recent earthquake activity has been reported nearby.
Minimum magnitude displayed is 2.5.

Coastal Water Temperatures

Place Temperature
No Stations Reporting

Nearby Weather Stations